.
WxDataArchive / Data Records for 2006-05-10
2006-05-09 May 2006 2006-05-11

Data Records for Wednesday, 10 May 2006

Time	Temp	Chill	HIndex	Humid	Dewpt	 Wind 	HiWind	WindDir	Rain 	Barom 
-----	----	-----	------	-----	-----	------	------	-------	-----	----- 
00:00	64.2	64.2	64.2	63	51.3	0	0	---	0.00	29.735 
00:05	63.7	63.7	63.7	64	51.3	0	0	---	0.00	29.735 
00:10	63.4	63.4	63.4	65	51.4	0	0	---	0.00	29.735 
00:15	63.1	63.1	63.1	65	51.1	0	0	---	0.00	29.736 
00:20	62.9	62.9	62.9	65	50.9	0	0	---	0.00	29.736 
00:25	62.7	62.7	62.7	67	51.6	0	0	---	0.00	29.736 
00:30	62.7	62.7	62.7	68	52.0	0	0	---	0.00	29.735 
00:35	62.6	62.6	62.6	68	51.9	0	0	---	0.00	29.735 
00:40	62.6	62.6	62.6	67	51.5	0	0	---	0.00	29.735 
00:45	62.6	62.6	62.6	69	52.3	0	0	---	0.00	29.736 
00:50	62.4	62.4	62.4	69	52.1	0	0	---	0.00	29.736 
00:55	62.4	62.4	62.4	69	52.1	0	0	---	0.00	29.736 
01:00	62.4	62.4	62.4	69	52.1	0	0	---	0.00	29.736 
01:05	62.3	62.3	62.3	69	52.0	0	0	---	0.00	29.736 
01:10	62.1	62.1	62.1	70	52.2	0	0	---	0.00	29.736 
01:15	62.0	62.0	62.0	71	52.5	0	0	---	0.00	29.735 
01:20	61.6	61.6	61.6	72	52.5	0	0	---	0.00	29.735 
01:25	61.3	61.3	61.3	73	52.6	0	0	---	0.00	29.735 
01:30	61.0	61.0	61.0	73	52.3	0	0	---	0.00	29.735 
01:35	60.9	60.9	60.9	73	52.2	0	0	---	0.00	29.735 
01:40	60.5	60.5	60.5	74	52.2	0	0	---	0.00	29.735 
01:45	60.2	60.2	60.2	76	52.6	0	0	---	0.00	29.730 
01:50	59.9	59.9	59.9	76	52.3	0	0	---	0.00	29.730 
01:55	59.6	59.6	59.6	76	52.0	0	0	---	0.00	29.730 
02:00	59.3	59.3	59.3	77	52.1	0	0	---	0.00	29.730 
02:05	59.0	59.0	59.0	78	52.1	0	0	---	0.00	29.730 
02:10	58.9	58.9	58.9	79	52.4	0	0	---	0.00	29.730 
02:15	58.6	58.6	58.6	79	52.1	0	0	---	0.00	29.727 
02:20	58.3	58.3	58.3	80	52.2	0	0	---	0.00	29.727 
02:25	58.0	58.0	58.0	81	52.2	0	0	---	0.00	29.727 
02:30	57.6	57.6	57.6	82	52.1	0	0	---	0.00	29.729 
02:35	57.5	57.5	57.5	82	52.0	0	0	---	0.00	29.729 
02:40	57.5	57.5	57.5	83	52.4	0	0	---	0.00	29.729 
02:45	57.5	57.5	57.5	83	52.4	0	0	---	0.00	29.732 
02:50	57.6	57.6	57.6	83	52.5	0	0	---	0.00	29.732 
02:55	57.6	57.6	57.6	83	52.5	0	0	---	0.00	29.732 
03:00	57.6	57.6	57.6	84	52.8	0	0	---	0.00	29.730 
03:05	57.6	57.6	57.6	84	52.8	0	0	---	0.00	29.730 
03:10	57.8	57.8	57.8	84	53.0	0	0	---	0.00	29.730 
03:15	57.6	57.6	57.6	83	52.5	0	0	---	0.00	29.730 
03:20	57.5	57.5	57.5	84	52.7	0	0	---	0.00	29.730 
03:25	57.3	57.3	57.3	84	52.5	0	0	---	0.00	29.730 
03:30	57.2	57.2	57.2	85	52.7	0	0	---	0.00	29.732 
03:35	57.0	57.0	57.0	85	52.5	0	0	---	0.00	29.732 
03:40	57.0	57.0	57.0	84	52.2	0	0	---	0.00	29.732 
03:45	56.9	56.9	56.9	84	52.1	0	0	---	0.00	29.731 
03:50	56.6	56.6	56.6	85	52.1	0	0	---	0.00	29.731 
03:55	56.5	56.5	56.5	86	52.4	0	0	---	0.00	29.731 
04:00	56.5	56.5	56.5	86	52.4	0	0	---	0.00	29.720 
04:05	56.5	56.5	56.5	87	52.7	0	0	---	0.00	29.720 
04:10	56.6	56.6	56.6	87	52.8	0	0	---	0.00	29.720 
04:15	56.7	56.7	56.7	87	52.9	0	0	---	0.00	29.720 
04:20	56.9	56.9	56.9	86	52.8	0	0	---	0.00	29.720 
04:25	57.0	57.0	57.0	87	53.2	0	0	---	0.00	29.720 
04:30	57.2	57.2	57.2	87	53.4	0	0	---	0.00	29.713 
04:35	57.5	57.5	57.5	86	53.3	0	0	---	0.00	29.713 
04:40	57.8	57.8	57.8	86	53.6	0	0	---	0.00	29.713 
04:45	58.1	58.1	58.1	85	53.6	0	0	---	0.00	29.705 
04:50	58.4	58.4	58.4	85	53.9	0	0	---	0.00	29.705 
04:55	58.6	58.6	58.6	85	54.1	0	0	---	0.00	29.705 
05:00	59.0	59.0	59.0	84	54.2	0	0	---	0.00	29.704 
05:05	59.2	59.2	59.2	84	54.4	0	0	---	0.00	29.704 
05:10	59.2	59.2	59.2	84	54.4	0	0	---	0.00	29.704 
05:15	59.3	59.3	59.3	84	54.5	0	0	---	0.00	29.708 
05:20	59.5	59.5	59.5	84	54.7	0	0	---	0.00	29.708 
05:25	59.8	59.8	59.8	83	54.6	0	1	90	0.00	29.708 
05:30	59.9	59.9	59.9	82	54.4	0	0	---	0.00	29.712 
05:35	60.1	60.1	60.1	82	54.6	0	0	---	0.00	29.712 
05:40	60.1	60.1	60.1	82	54.6	0	0	---	0.00	29.712 
05:45	60.1	60.1	60.1	81	54.2	0	0	---	0.00	29.702 
05:50	59.9	59.9	59.9	82	54.4	0	0	---	0.00	29.702 
05:55	59.8	59.8	59.8	82	54.3	0	0	---	0.00	29.702 
06:00	59.6	59.6	59.6	82	54.1	0	0	---	0.00	29.705 
06:05	59.5	59.5	59.5	83	54.3	0	0	---	0.00	29.705 
06:10	59.3	59.3	59.3	84	54.5	0	0	---	0.00	29.705 
06:15	59.3	59.3	59.3	84	54.5	0	0	---	0.00	29.708 
06:20	59.3	59.3	59.3	84	54.5	0	0	---	0.00	29.708 
06:25	59.3	59.3	59.3	84	54.5	0	0	---	0.00	29.708 
06:30	59.3	59.3	59.3	84	54.5	0	0	---	0.00	29.709 
06:35	59.3	59.3	59.3	85	54.8	0	0	---	0.00	29.709 
06:40	59.3	59.3	59.3	85	54.8	0	0	---	0.00	29.709 
06:45	59.3	59.3	59.3	84	54.5	0	0	---	0.00	29.705 
06:50	59.3	59.3	59.3	85	54.8	0	0	---	0.00	29.705 
06:55	59.3	59.3	59.3	85	54.8	0	0	---	0.00	29.705 
07:00	59.3	59.3	59.3	85	54.8	0	0	---	0.00	29.706 
07:05	59.3	59.3	59.3	85	54.8	0	0	---	0.00	29.706 
07:10	59.3	59.3	59.3	85	54.8	0	0	---	0.00	29.706 
07:15	59.3	59.3	59.3	85	54.8	0	0	---	0.00	29.704 
07:20	59.5	59.5	59.5	85	55.0	0	0	---	0.00	29.704 
07:25	59.6	59.6	59.6	85	55.1	0	0	---	0.00	29.704 
07:30	59.8	59.8	59.8	85	55.3	0	0	---	0.00	29.703 
07:35	60.1	60.1	60.1	84	55.2	0	1	90	0.00	29.703 
07:40	60.4	60.4	60.4	84	55.5	0	1	90	0.00	29.703 
07:45	60.9	60.9	60.9	83	55.7	0	2	90	0.00	29.706 
07:50	61.3	61.3	61.3	82	55.8	0	2	90	0.00	29.706 
07:55	61.8	61.8	61.8	81	55.9	0	1	90	0.00	29.706 
08:00	62.1	62.1	62.1	80	55.9	0	2	90	0.00	29.705 
08:05	62.6	62.6	62.6	78	55.6	0	2	90	0.00	29.705 
08:10	63.2	63.2	63.2	77	55.9	0	1	90	0.00	29.705 
08:15	63.9	63.9	63.9	76	56.2	0	1	90	0.00	29.703 
08:20	64.3	64.3	64.3	75	56.2	0	1	90	0.00	29.703 
08:25	64.7	64.7	64.7	74	56.2	1	3	90	0.00	29.703 
08:30	65.0	65.0	65.0	74	56.5	1	3	90	0.00	29.705 
08:35	65.2	65.2	65.2	74	56.7	1	3	90	0.00	29.705 
08:40	65.3	65.3	65.3	73	56.4	1	3	90	0.00	29.705 
08:45	65.6	65.6	65.6	73	56.7	1	3	112	0.00	29.704 
08:50	65.8	65.8	65.8	73	56.9	1	3	112	0.00	29.704 
08:55	66.1	66.1	66.1	73	57.2	1	2	112	0.00	29.704 
09:00	66.6	66.6	66.6	73	57.7	0	2	112	0.00	29.706 
09:05	66.8	66.8	66.8	72	57.5	1	3	270	0.00	29.706 
09:10	66.8	66.8	66.8	72	57.5	1	3	270	0.00	29.706 
09:15	67.1	67.1	67.1	71	57.4	1	3	270	0.00	29.705 
09:20	67.1	67.1	67.1	71	57.4	1	3	112	0.00	29.705 
09:25	67.3	67.3	67.3	72	58.0	1	2	112	0.00	29.705 
09:30	67.3	67.3	67.3	71	57.6	1	2	112	0.00	29.713 
09:35	67.4	67.4	67.4	71	57.7	1	2	225	0.00	29.713 
09:40	67.6	67.6	67.6	72	58.2	1	3	248	0.00	29.713 
09:45	67.9	67.9	67.9	71	58.1	0	2	248	0.00	29.714 
09:50	68.6	68.6	68.6	71	58.8	0	3	248	0.00	29.714 
09:55	68.9	68.9	68.9	69	58.3	1	3	68	0.00	29.714 
10:00	69.1	69.1	69.1	69	58.5	2	3	68	0.00	29.713 
10:05	69.3	69.3	69.3	69	58.7	1	3	68	0.00	29.713 
10:10	69.6	69.6	69.6	69	59.0	1	3	68	0.00	29.713 
10:15	69.8	69.8	69.8	68	58.7	1	3	270	0.00	29.710 
10:20	70.1	70.1	70.1	68	59.0	1	3	248	0.00	29.710 
10:25	70.3	70.3	70.3	69	59.6	1	4	112	0.00	29.710 
10:30	69.9	69.9	69.9	69	59.3	2	4	90	0.00	29.700 
10:35	69.9	69.9	69.9	69	59.3	1	3	112	0.00	29.700 
10:40	69.9	69.9	69.9	68	58.8	1	3	112	0.00	29.700 
10:45	70.3	70.3	70.3	67	58.8	1	3	112	0.00	29.696 
10:50	70.6	70.6	70.6	67	59.1	1	3	112	0.00	29.696 
10:55	70.8	70.8	70.8	68	59.7	1	2	112	0.00	29.696 
11:00	70.3	70.3	70.3	69	59.6	2	5	90	0.00	29.689 
11:05	70.6	70.6	70.6	69	59.9	0	2	112	0.00	29.689 
11:10	71.1	71.1	71.1	68	60.0	2	4	112	0.00	29.689 
11:15	70.9	70.9	70.9	70	60.6	1	4	90	0.00	29.695 
11:20	70.9	70.9	70.9	68	59.8	1	3	90	0.00	29.695 
11:25	70.8	70.8	70.8	69	60.1	1	4	90	0.00	29.695 
11:30	70.8	70.8	70.8	69	60.1	1	3	90	0.00	29.695 
11:35	70.9	70.9	70.9	69	60.2	1	4	90	0.00	29.695 
11:40	70.9	70.9	70.9	69	60.2	1	4	112	0.00	29.695 
11:45	71.1	71.1	71.1	69	60.4	0	2	112	0.00	29.699 
11:50	71.1	71.1	71.1	69	60.4	1	3	248	0.00	29.699 
11:55	71.3	71.3	71.3	67	59.8	1	3	248	0.00	29.699 
12:00	71.3	71.3	71.3	67	59.8	1	3	202	0.00	29.698 
12:05	71.3	71.3	71.3	68	60.2	1	2	90	0.00	29.698 
12:10	71.6	71.6	71.6	68	60.5	0	1	90	0.00	29.698 
12:15	71.8	71.8	71.8	68	60.7	1	5	112	0.00	29.697 
12:20	71.8	71.8	71.8	67	60.2	0	2	68	0.00	29.697 
12:25	72.0	72.0	72.0	68	60.8	1	4	248	0.00	29.697 
12:30	71.8	71.8	71.8	66	59.8	1	3	248	0.00	29.694 
12:35	71.6	71.6	71.6	66	59.6	1	4	248	0.00	29.694 
12:40	72.0	72.0	72.0	68	60.8	0	2	180	0.00	29.694 
12:45	72.1	72.1	72.1	66	60.1	1	4	158	0.00	29.689 
12:50	72.5	72.5	72.5	65	60.0	1	3	90	0.00	29.689 
12:55	72.5	72.5	72.5	67	60.9	0	1	90	0.00	29.689 
13:00	72.3	72.3	72.3	65	59.9	1	3	90	0.00	29.684 
13:05	72.0	72.0	72.0	65	59.6	1	3	90	0.00	29.684 
13:10	71.8	71.8	71.8	66	59.8	0	2	90	0.00	29.684 
13:15	71.5	71.5	71.5	68	60.4	1	3	248	0.00	29.684 
13:20	71.5	71.5	71.5	67	60.0	1	3	248	0.00	29.684 
13:25	71.8	71.8	71.8	66	59.8	1	3	248	0.00	29.684 
13:30	72.0	72.0	72.0	66	60.0	1	3	112	0.00	29.677 
13:35	72.0	72.0	72.0	67	60.4	1	3	112	0.00	29.677 
13:40	72.0	72.0	72.0	65	59.6	1	3	248	0.00	29.677 
13:45	72.1	72.1	72.1	65	59.7	1	4	112	0.00	29.670 
13:50	72.3	72.3	72.3	63	59.0	1	3	90	0.00	29.670 
13:55	72.5	72.5	72.5	65	60.0	1	3	90	0.00	29.670 
14:00	72.5	72.5	72.5	63	59.2	1	4	112	0.00	29.666 
14:05	72.3	72.3	72.3	64	59.4	1	2	135	0.00	29.666 
14:10	71.8	71.8	71.8	68	60.7	2	5	90	0.00	29.666 
14:15	70.6	70.6	70.6	76	62.7	1	3	90	0.04	29.662 
14:20	69.1	69.1	69.1	81	63.0	0	2	90	0.06	29.662 
14:25	67.9	67.9	67.9	83	62.5	0	0	---	0.00	29.662 
14:30	67.4	67.4	67.4	85	62.7	0	0	---	0.01	29.645 
14:35	67.4	67.4	67.4	88	63.7	0	0	---	0.00	29.645 
14:40	67.6	67.6	67.6	88	63.9	0	0	---	0.00	29.645 
14:45	68.1	68.1	68.1	88	64.4	0	0	---	0.00	29.637 
14:50	68.4	68.4	68.4	86	64.0	0	0	---	0.00	29.637 
14:55	69.1	69.1	69.1	81	63.0	1	2	90	0.00	29.637 
15:00	69.6	69.6	69.6	81	63.5	0	1	90	0.00	29.629 
15:05	69.8	69.8	69.8	78	62.6	0	2	90	0.00	29.629 
15:10	70.1	70.1	70.1	76	62.2	0	2	90	0.00	29.629 
15:15	70.6	70.6	70.6	74	61.9	0	2	90	0.00	29.625 
15:20	70.9	70.9	70.9	74	62.2	0	1	90	0.00	29.625 
15:25	71.1	71.1	71.1	70	60.8	1	2	90	0.00	29.625 
15:30	71.1	71.1	71.1	69	60.4	0	2	90	0.00	29.612 
15:35	71.1	71.1	71.1	70	60.8	0	2	90	0.00	29.612 
15:40	70.9	70.9	70.9	71	61.0	1	4	90	0.00	29.612 
15:45	70.8	70.8	70.8	69	60.1	1	3	90	0.00	29.611 
15:50	70.6	70.6	70.6	70	60.3	1	4	90	0.00	29.611 
15:55	70.6	70.6	70.6	70	60.3	1	3	112	0.00	29.611 
16:00	70.6	70.6	70.6	70	60.3	2	4	90	0.00	29.604 
16:05	70.6	70.6	70.6	69	59.9	1	2	112	0.00	29.604 
16:10	70.8	70.8	70.8	68	59.7	0	2	112	0.00	29.604 
16:15	70.8	70.8	70.8	69	60.1	1	2	112	0.00	29.591 
16:20	70.8	70.8	70.8	66	58.9	1	3	112	0.00	29.591 
16:25	70.8	70.8	70.8	67	59.3	0	2	112	0.00	29.591 
16:30	70.6	70.6	70.6	68	59.5	0	1	112	0.00	29.590 
16:35	70.4	70.4	70.4	67	58.9	1	2	112	0.00	29.590 
16:40	70.3	70.3	70.3	68	59.2	0	1	112	0.00	29.590 
16:45	70.3	70.3	70.3	67	58.8	1	2	112	0.00	29.586 
16:50	70.3	70.3	70.3	67	58.8	1	3	112	0.00	29.586 
16:55	70.3	70.3	70.3	67	58.8	1	3	112	0.00	29.586 
17:00	70.3	70.3	70.3	68	59.2	1	2	112	0.00	29.577 
17:05	70.3	70.3	70.3	69	59.6	0	2	112	0.00	29.577 
17:10	70.3	70.3	70.3	69	59.6	1	2	112	0.00	29.577 
17:15	70.3	70.3	70.3	68	59.2	2	4	112	0.00	29.566 
17:20	69.9	69.9	69.9	68	58.8	1	3	90	0.00	29.566 
17:25	69.8	69.8	69.8	68	58.7	1	3	90	0.00	29.566 
17:30	69.6	69.6	69.6	68	58.6	1	3	90	0.00	29.563 
17:35	69.4	69.4	69.4	69	58.8	1	5	135	0.00	29.563 
17:40	69.3	69.3	69.3	69	58.7	1	3	68	0.00	29.563 
17:45	69.3	69.3	69.3	70	59.1	1	2	68	0.00	29.559 
17:50	69.1	69.1	69.1	69	58.5	0	2	90	0.00	29.559 
17:55	69.1	69.1	69.1	73	60.1	0	2	90	0.00	29.559 
18:00	68.9	68.9	68.9	72	59.5	0	2	90	0.00	29.548 
18:05	68.8	68.8	68.8	73	59.8	0	1	90	0.00	29.548 
18:10	68.6	68.6	68.6	75	60.3	1	2	90	0.00	29.548 
18:15	68.3	68.3	68.3	76	60.4	1	2	90	0.00	29.548 
18:20	67.8	67.8	67.8	79	61.0	0	1	90	0.01	29.548 
18:25	67.3	67.3	67.3	80	60.9	0	2	90	0.00	29.548 
18:30	66.9	66.9	66.9	82	61.2	0	1	90	0.01	29.542 
18:35	66.6	66.6	66.6	83	61.3	0	1	90	0.00	29.542 
18:40	66.3	66.3	66.3	84	61.3	0	2	112	0.00	29.542 
18:45	66.0	66.0	66.0	84	61.0	1	2	112	0.01	29.534 
18:50	65.6	65.6	65.6	84	60.6	1	3	112	0.00	29.534 
18:55	65.5	65.5	65.5	86	61.2	0	2	112	0.01	29.534 
19:00	65.2	65.2	65.2	86	60.9	1	3	112	0.01	29.531 
19:05	65.0	65.0	65.0	87	61.0	0	2	112	0.00	29.531 
19:10	64.8	64.8	64.8	88	61.2	0	2	112	0.00	29.531 
19:15	64.7	64.7	64.7	88	61.1	1	3	112	0.01	29.525 
19:20	64.5	64.5	64.5	89	61.2	1	3	90	0.00	29.525 
19:25	64.5	64.5	64.5	90	61.5	1	2	90	0.01	29.525 
19:30	64.3	64.3	64.3	90	61.3	1	3	90	0.00	29.518 
19:35	64.2	64.2	64.2	90	61.2	0	1	90	0.00	29.518 
19:40	64.2	64.2	64.2	91	61.5	0	1	90	0.01	29.518 
19:45	64.0	64.0	64.0	91	61.3	0	2	158	0.00	29.514 
19:50	63.9	63.9	63.9	91	61.2	0	1	158	0.01	29.514 
19:55	63.7	63.7	63.7	91	61.0	0	0	---	0.00	29.514 
20:00	63.7	63.7	63.7	91	61.0	0	1	158	0.00	29.508 
20:05	63.5	63.5	63.5	91	60.8	0	0	---	0.00	29.508 
20:10	63.5	63.5	63.5	91	60.8	0	0	---	0.00	29.508 
20:15	63.4	63.4	63.4	91	60.7	0	0	---	0.01	29.497 
20:20	63.4	63.4	63.4	92	61.0	0	0	---	0.00	29.497 
20:25	63.4	63.4	63.4	92	61.0	0	0	---	0.00	29.497 
20:30	63.4	63.4	63.4	92	61.0	0	0	---	0.01	29.487 
20:35	63.5	63.5	63.5	92	61.1	0	1	158	0.00	29.487 
20:40	63.5	63.5	63.5	92	61.1	0	1	158	0.01	29.487 
20:45	63.4	63.4	63.4	92	61.0	1	4	68	0.01	29.481 
20:50	63.2	63.2	63.2	92	60.8	1	3	68	0.04	29.481 
20:55	63.1	63.1	63.1	92	60.7	0	2	112	0.03	29.481 
21:00	63.1	63.1	63.1	92	60.7	0	1	112	0.02	29.477 
21:05	62.9	62.9	62.9	93	60.8	0	1	112	0.01	29.477 
21:10	62.9	62.9	62.9	93	60.8	0	1	112	0.01	29.477 
21:15	62.7	62.7	62.7	93	60.6	0	1	112	0.02	29.465 
21:20	62.7	62.7	62.7	93	60.6	0	0	---	0.00	29.465 
21:25	62.6	62.6	62.6	93	60.5	0	0	---	0.01	29.465 
21:30	62.6	62.6	62.6	93	60.5	0	0	---	0.01	29.462 
21:35	62.6	62.6	62.6	93	60.5	0	0	---	0.01	29.462 
21:40	62.6	62.6	62.6	93	60.5	0	0	---	0.01	29.462 
21:45	62.6	62.6	62.6	93	60.5	0	0	---	0.01	29.451 
21:50	62.1	62.1	62.1	93	60.0	0	1	112	0.00	29.451 
21:55	61.3	61.3	61.3	92	59.0	1	2	315	0.01	29.451 
22:00	60.5	60.5	60.5	92	58.2	1	6	315	0.00	29.450 
22:05	59.9	59.9	59.9	92	57.6	1	2	315	0.00	29.450 
22:10	59.6	59.6	59.6	92	57.3	1	4	315	0.01	29.450 
22:15	59.3	59.3	59.3	92	57.0	1	6	292	0.00	29.449 
22:20	59.2	59.2	59.2	92	56.9	1	7	270	0.01	29.449 
22:25	59.0	59.0	59.0	93	57.0	1	4	292	0.00	29.449 
22:30	58.7	58.7	58.7	93	56.7	1	5	292	0.01	29.436 
22:35	58.6	58.6	58.6	93	56.6	1	4	315	0.00	29.436 
22:40	58.4	58.4	58.4	92	56.1	2	6	338	0.01	29.436 
22:45	58.3	58.3	58.3	92	56.0	1	3	292	0.00	29.426 
22:50	58.3	58.3	58.3	93	56.3	2	5	338	0.00	29.426 
22:55	58.3	58.3	58.3	93	56.3	1	4	292	0.00	29.426 
23:00	58.1	58.1	58.1	92	55.8	1	5	315	0.00	29.422 
23:05	58.1	58.1	58.1	92	55.8	1	4	315	0.00	29.422 
23:10	58.1	58.1	58.1	92	55.8	1	4	315	0.01	29.422 
23:15	58.0	58.0	58.0	92	55.7	1	5	315	0.01	29.415 
23:20	58.0	58.0	58.0	92	55.7	1	4	338	0.01	29.415 
23:25	57.8	57.8	57.8	92	55.5	1	5	338	0.01	29.415 
23:30	57.8	57.8	57.8	92	55.5	1	4	315	0.01	29.401 
23:35	57.6	57.6	57.6	93	55.6	1	2	315	0.00	29.401 
23:40	57.5	57.5	57.5	92	55.2	1	7	315	0.01	29.401 
23:45	57.5	57.5	57.5	92	55.2	1	3	315	0.00	29.383 
23:50	57.3	57.3	57.3	92	55.0	1	6	292	0.01	29.383 
23:55	57.2	57.2	57.2	92	54.9	1	3	292	0.01	29.383 

CoCoRaHS
IN-AL-39
A2 Web Hosting
Creative Commons License
GoDaddy
Look for:

loaded 2017-10-16 18:34:17 • last modified 2010-11-18 10:43:29
Privacy PolicyDisclaimer
• wx.awcolley.com is powered by PmWiki v.2002016 •
• all content (unless otherwise noted) © 2017 A W Colley